createdAt,value
2019-04-23T00:01:29.927Z,8.47
2019-04-23T00:03:58.479Z,8.38
2019-04-23T00:06:40.642Z,8.30
2019-04-23T00:14:12.210Z,8.14
2019-04-23T00:16:40.879Z,8.08
2019-04-23T00:19:11.701Z,8.01
2019-04-23T00:21:52.126Z,7.95
2019-04-23T00:27:23.964Z,7.85
2019-04-23T00:29:53.501Z,7.80
2019-04-23T00:32:23.354Z,7.75
2019-04-23T00:35:04.267Z,7.74
2019-04-23T00:37:25.481Z,7.71
2019-04-23T00:42:29.598Z,7.98
2019-04-23T00:44:51.771Z,8.15
2019-04-23T00:47:28.310Z,8.08
2019-04-23T00:49:58.603Z,8.31
2019-04-23T00:52:26.591Z,8.39
2019-04-23T00:55:07.533Z,8.42
2019-04-23T00:57:29.309Z,8.48
2019-04-23T01:00:06.440Z,8.46
2019-04-23T01:02:31.200Z,8.38
2019-04-23T01:05:11.733Z,8.50
2019-04-23T01:07:32.070Z,8.51
2019-04-23T01:10:10.271Z,8.50
2019-04-23T01:12:52.909Z,8.63
2019-04-23T01:15:11.489Z,8.70
2019-04-23T01:20:14.831Z,8.46
2019-04-23T01:22:27.465Z,8.29
2019-04-23T01:25:09.767Z,8.12
2019-04-23T01:28:03.962Z,8.03
2019-04-23T01:30:32.874Z,7.90
2019-04-23T01:33:09.238Z,8.02
2019-04-23T01:35:41.674Z,7.95
2019-04-23T01:38:11.595Z,7.95
2019-04-23T01:40:40.678Z,7.82
2019-04-23T01:43:16.464Z,7.75
2019-04-23T01:45:44.401Z,7.88
2019-04-23T01:48:18.472Z,7.93
2019-04-23T01:50:53.128Z,8.06
2019-04-23T01:53:27.302Z,8.15
2019-04-23T01:56:01.264Z,8.28
2019-04-23T02:01:00.754Z,8.28
2019-04-23T02:06:00.027Z,8.56
2019-04-23T02:08:32.169Z,8.57
2019-04-23T02:11:07.970Z,8.42
2019-04-23T02:13:38.793Z,8.36
2019-04-23T02:16:05.188Z,8.44
2019-04-23T02:18:38.822Z,8.69
2019-04-23T02:21:10.620Z,8.67
2019-04-23T02:23:57.364Z,8.74
2019-04-23T02:26:21.684Z,8.73
2019-04-23T02:29:14.661Z,8.85
2019-04-23T02:31:45.262Z,8.92
2019-04-23T02:34:01.175Z,9.05
2019-04-23T02:36:32.643Z,9.06
2019-04-23T02:38:58.260Z,9.09
2019-04-23T02:44:11.505Z,9.15
2019-04-23T02:46:27.364Z,9.02
2019-04-23T02:54:16.419Z,8.71
2019-04-23T03:02:05.735Z,8.59
2019-04-23T03:04:21.974Z,8.54
2019-04-23T03:06:48.134Z,8.64
2019-04-23T03:09:23.658Z,8.60
2019-04-23T03:11:47.907Z,8.50
2019-04-23T03:14:24.204Z,8.49
2019-04-23T03:16:56.318Z,8.45
2019-04-23T03:19:35.178Z,8.48
2019-04-23T03:22:01.596Z,8.35
2019-04-23T03:29:49.092Z,8.26
2019-04-23T03:32:45.758Z,8.44
2019-04-23T03:37:23.470Z,8.66
2019-04-23T03:40:02.146Z,8.67
2019-04-23T03:42:17.330Z,8.82
2019-04-23T03:47:24.190Z,8.60
2019-04-23T03:49:55.370Z,8.67
2019-04-23T03:52:27.827Z,8.82
2019-04-23T03:57:24.884Z,8.82
2019-04-23T04:00:03.974Z,8.89
2019-04-23T04:02:43.991Z,8.84
2019-04-23T04:04:58.467Z,8.88
2019-04-23T04:07:43.839Z,8.78
2019-04-23T04:10:05.317Z,8.77
2019-04-23T04:15:05.130Z,8.68
2019-04-23T04:20:05.133Z,8.77
2019-04-23T04:25:06.992Z,8.80
2019-04-23T04:27:45.850Z,8.76
2019-04-23T04:30:10.741Z,8.71
2019-04-23T04:32:44.687Z,8.72
2019-04-23T04:35:24.945Z,8.68
2019-04-23T04:38:06.184Z,8.73
2019-04-23T04:40:23.360Z,8.79
2019-04-23T04:43:02.148Z,8.72
2019-04-23T04:45:43.232Z,8.67
2019-04-23T04:47:44.485Z,8.76
2019-04-23T04:50:18.832Z,8.73
2019-04-23T04:53:06.163Z,8.78
2019-04-23T04:55:21.280Z,8.82
2019-04-23T04:58:07.450Z,8.87
2019-04-23T05:00:32.597Z,8.96
2019-04-23T05:03:18.039Z,9.11
2019-04-23T05:05:55.292Z,9.08
2019-04-23T05:07:54.794Z,9.11
2019-04-23T05:13:26.340Z,9.36
2019-04-23T05:15:28.231Z,9.72
2019-04-23T05:20:58.494Z,10.70
2019-04-23T05:23:23.513Z,10.55
2019-04-23T05:25:40.061Z,10.96
2019-04-23T05:28:14.438Z,10.94
2019-04-23T05:33:17.961Z,11.29
2019-04-23T05:36:06.001Z,11.64
2019-04-23T05:38:38.031Z,12.03
2019-04-23T05:40:59.219Z,12.29
2019-04-23T05:43:19.362Z,11.62
2019-04-23T05:46:16.022Z,11.88
2019-04-23T05:48:25.591Z,12.07
2019-04-23T05:53:27.580Z,12.45
2019-04-23T05:56:01.601Z,11.97
2019-04-23T06:01:49.563Z,12.32
2019-04-23T06:04:10.481Z,12.32
2019-04-23T06:06:45.465Z,12.85
2019-04-23T06:09:12.746Z,14.13
2019-04-23T06:11:45.719Z,13.69
2019-04-23T06:14:13.045Z,14.10
2019-04-23T06:19:14.302Z,15.56
2019-04-23T06:21:54.986Z,15.78
2019-04-23T06:26:45.816Z,16.98
2019-04-23T06:29:20.430Z,16.54
2019-04-23T06:31:50.712Z,15.93
2019-04-23T06:34:21.657Z,15.43
2019-04-23T06:36:51.429Z,15.86
2019-04-23T06:39:26.002Z,15.22
2019-04-23T06:41:55.147Z,16.10
2019-04-23T06:44:25.613Z,16.08
2019-04-23T06:47:05.729Z,16.01
2019-04-23T06:49:30.474Z,16.26
2019-04-23T06:52:11.858Z,16.70
2019-04-23T06:54:36.118Z,16.46
2019-04-23T06:57:14.098Z,16.22
2019-04-23T06:59:32.352Z,16.91
2019-04-23T07:02:14.995Z,17.08
2019-04-23T07:04:41.021Z,17.35
2019-04-23T07:07:31.511Z,16.68
2019-04-23T07:09:35.239Z,17.12
2019-04-23T07:12:08.677Z,17.51
2019-04-23T07:14:51.445Z,18.37
2019-04-23T07:17:11.336Z,19.39
2019-04-23T07:19:42.238Z,18.50
2019-04-23T07:22:16.396Z,18.05
2019-04-23T07:24:47.617Z,18.36
2019-04-23T07:27:19.090Z,18.60
2019-04-23T07:29:56.829Z,18.37
2019-04-23T07:32:15.194Z,19.64
2019-04-23T07:35:00.915Z,20.60
2019-04-23T07:37:24.066Z,18.83
2019-04-23T07:40:17.724Z,19.70
2019-04-23T07:42:55.085Z,19.71
2019-04-23T07:45:24.039Z,19.16
2019-04-23T07:48:10.881Z,19.06
2019-04-23T08:05:43.714Z,19.44
2019-04-23T08:08:15.135Z,21.00
2019-04-23T08:11:14.391Z,20.02
2019-04-23T08:13:32.339Z,20.43
2019-04-23T08:15:55.102Z,20.36
2019-04-23T08:18:29.942Z,20.02
2019-04-23T08:20:55.641Z,20.03
2019-04-23T08:23:50.708Z,20.52
2019-04-23T08:26:34.784Z,20.10
2019-04-23T08:29:12.303Z,20.73
2019-04-23T08:31:43.911Z,21.17
2019-04-23T08:36:50.109Z,20.23
2019-04-23T08:39:18.279Z,20.45
2019-04-23T08:42:09.512Z,20.16
2019-04-23T08:44:27.300Z,20.63
2019-04-23T08:47:02.662Z,19.94
2019-04-23T08:49:47.019Z,20.68
2019-04-23T08:52:14.750Z,21.00
2019-04-23T08:54:49.835Z,20.54
2019-04-23T08:57:17.146Z,21.05
2019-04-23T09:02:24.001Z,20.33
2019-04-23T09:04:49.968Z,18.89
2019-04-23T09:09:53.714Z,19.91
2019-04-23T09:14:52.422Z,20.91
2019-04-23T09:20:07.117Z,20.66
2019-04-23T09:24:57.455Z,20.01
2019-04-23T09:27:31.202Z,19.51
2019-04-23T09:35:15.025Z,19.28
2019-04-23T09:40:28.532Z,19.73
2019-04-23T09:43:00.535Z,19.17
2019-04-23T09:45:51.567Z,19.66
2019-04-23T09:48:29.897Z,19.92
2019-04-23T09:50:51.736Z,19.10
2019-04-23T09:55:41.868Z,20.77
2019-04-23T09:58:15.462Z,19.84
2019-04-23T10:00:54.493Z,20.13
2019-04-23T10:03:16.657Z,21.49
2019-04-23T10:05:43.714Z,21.70
2019-04-23T10:08:15.328Z,22.01
2019-04-23T10:10:34.384Z,22.08
2019-04-23T10:13:04.348Z,22.71
2019-04-23T10:15:39.039Z,22.04
2019-04-23T10:18:05.080Z,21.88
2019-04-23T10:20:36.296Z,20.89
2019-04-23T10:23:06.211Z,21.51
2019-04-23T10:25:36.096Z,21.78
2019-04-23T10:28:11.374Z,21.05
2019-04-23T10:30:42.617Z,22.66
2019-04-23T10:33:13.832Z,23.23
2019-04-23T10:35:53.124Z,23.82
2019-04-23T10:38:18.635Z,21.97
2019-04-23T10:40:50.119Z,23.84
2019-04-23T10:43:17.572Z,22.53
2019-04-23T10:46:08.023Z,22.11
2019-04-23T10:49:04.535Z,22.01
2019-04-23T10:51:40.968Z,21.19
2019-04-23T10:54:24.303Z,21.79
2019-04-23T10:59:21.531Z,22.67
2019-04-23T11:01:53.043Z,22.81
2019-04-23T11:04:34.959Z,21.94
2019-04-23T11:06:50.365Z,21.54
2019-04-23T11:09:38.637Z,21.28
2019-04-23T11:12:01.477Z,21.61
2019-04-23T11:14:30.936Z,20.46
2019-04-23T11:17:07.132Z,21.14
2019-04-23T11:19:39.974Z,21.99
2019-04-23T11:22:24.775Z,21.84
2019-04-23T11:24:54.862Z,20.90
2019-04-23T11:27:05.431Z,19.66
2019-04-23T11:35:03.250Z,19.82
2019-04-23T11:37:24.979Z,19.55
2019-04-23T11:39:55.726Z,19.52
2019-04-23T11:44:49.880Z,19.37
2019-04-23T11:47:32.728Z,19.18
2019-04-23T11:49:53.486Z,19.09
2019-04-23T11:52:34.495Z,19.05
2019-04-23T11:54:53.057Z,19.10
2019-04-23T11:57:40.803Z,19.43
2019-04-23T11:59:53.364Z,19.24
2019-04-23T12:02:46.671Z,19.41
2019-04-23T12:05:26.844Z,19.11
2019-04-23T12:07:59.125Z,19.67
2019-04-23T12:13:03.222Z,20.52
2019-04-23T12:15:37.607Z,21.36
2019-04-23T12:18:28.694Z,20.78
2019-04-23T12:23:28.121Z,19.97
2019-04-23T12:25:45.824Z,20.40
2019-04-23T12:28:16.528Z,19.57
2019-04-23T12:30:45.143Z,19.24
2019-04-23T12:33:20.751Z,18.79
2019-04-23T12:35:40.425Z,18.49
2019-04-23T12:38:22.071Z,18.31
2019-04-23T12:40:49.264Z,18.27
2019-04-23T12:43:25.685Z,18.10
2019-04-23T12:45:47.372Z,18.03
2019-04-23T12:53:32.217Z,18.29
2019-04-23T12:56:16.961Z,18.15
2019-04-23T12:58:28.973Z,18.08
2019-04-23T13:00:57.945Z,18.23
2019-04-23T13:03:33.689Z,17.87
2019-04-23T13:06:06.483Z,17.90
2019-04-23T13:08:41.472Z,17.82
2019-04-23T13:11:07.685Z,17.86
2019-04-23T13:16:18.068Z,17.99
2019-04-23T13:21:30.095Z,17.94
2019-04-23T13:23:43.860Z,17.77
2019-04-23T13:26:11.766Z,17.88
2019-04-23T13:29:13.552Z,17.86
2019-04-23T13:44:08.503Z,17.93
2019-04-23T13:46:46.652Z,18.11
2019-04-23T13:49:03.192Z,18.03
2019-04-23T13:51:32.706Z,18.08
2019-04-23T13:54:15.781Z,18.07
2019-04-23T13:57:03.997Z,18.07
2019-04-23T13:59:16.256Z,18.08
2019-04-23T14:01:54.738Z,17.99
2019-04-23T14:04:33.107Z,18.09
2019-04-23T14:06:50.622Z,18.24
2019-04-23T14:09:31.465Z,18.40
2019-04-23T14:11:48.908Z,18.41
2019-04-23T14:14:43.731Z,18.22
2019-04-23T14:17:02.588Z,18.30
2019-04-23T14:19:26.066Z,18.45
2019-04-23T14:22:03.337Z,18.42
2019-04-23T14:24:38.121Z,18.55
2019-04-23T14:27:07.325Z,18.90
2019-04-23T14:29:41.453Z,19.37
2019-04-23T14:32:08.792Z,19.25
2019-04-23T14:34:48.391Z,19.32
2019-04-23T14:37:11.877Z,19.25
2019-04-23T14:39:40.742Z,18.85
2019-04-23T14:42:21.391Z,18.64
2019-04-23T14:44:43.765Z,18.82
2019-04-23T14:47:24.410Z,18.71
2019-04-23T14:50:14.993Z,18.53
2019-04-23T14:52:31.020Z,18.65
2019-04-23T14:55:37.913Z,18.26
2019-04-23T14:57:45.449Z,18.01
2019-04-23T15:00:01.879Z,17.89
2019-04-23T15:02:36.334Z,17.84
2019-04-23T15:07:33.843Z,17.72
2019-04-23T15:10:24.506Z,17.70
2019-04-23T15:12:41.782Z,17.75
2019-04-23T15:17:40.136Z,17.57
2019-04-23T15:20:20.007Z,17.45
2019-04-23T15:23:02.734Z,17.29
2019-04-23T15:25:26.381Z,17.25
2019-04-23T15:28:05.878Z,17.18
2019-04-23T15:30:15.704Z,17.13
2019-04-23T15:33:07.670Z,17.08
2019-04-23T15:35:45.900Z,16.92
2019-04-23T15:38:27.222Z,16.62
2019-04-23T15:40:42.088Z,16.61
2019-04-23T15:43:24.853Z,16.41
2019-04-23T15:46:11.632Z,16.34
2019-04-23T15:48:58.053Z,16.29
2019-04-23T15:53:52.231Z,16.16
2019-04-23T15:56:26.867Z,16.16
2019-04-23T15:59:04.304Z,16.14
2019-04-23T16:03:27.475Z,15.97
2019-04-23T16:05:57.419Z,15.94
2019-04-23T16:14:47.899Z,15.85
2019-04-23T16:17:04.148Z,15.80
2019-04-23T16:19:36.674Z,15.72
2019-04-23T16:24:26.658Z,15.72
2019-04-23T16:27:09.329Z,15.65
2019-04-23T16:29:44.459Z,15.63
2019-04-23T16:32:14.820Z,15.59
2019-04-23T16:34:34.080Z,15.53
2019-04-23T16:37:08.208Z,15.47
2019-04-23T16:39:39.460Z,15.42
2019-04-23T16:42:17.163Z,15.41
2019-04-23T16:45:06.335Z,15.46
2019-04-23T16:49:51.089Z,15.32
2019-04-23T16:52:17.732Z,15.23
2019-04-23T17:00:06.686Z,15.08
2019-04-23T17:02:29.675Z,15.10
2019-04-23T17:04:54.408Z,15.08
2019-04-23T17:07:20.431Z,15.01
2019-04-23T17:10:16.077Z,14.97
2019-04-23T17:12:17.549Z,14.92
2019-04-23T17:15:03.344Z,14.88
2019-04-23T17:17:25.001Z,14.86
2019-04-23T17:20:10.138Z,14.83
2019-04-23T17:22:33.924Z,14.78
2019-04-23T17:27:39.068Z,14.73
2019-04-23T17:30:13.163Z,14.70
2019-04-23T17:32:36.197Z,14.66
2019-04-23T17:35:17.828Z,14.69
2019-04-23T17:38:16.679Z,14.65
2019-04-23T17:40:53.650Z,14.58
2019-04-23T17:43:06.329Z,14.57
2019-04-23T17:45:48.998Z,14.59
2019-04-23T17:48:34.991Z,14.55
2019-04-23T17:53:59.886Z,14.51
2019-04-23T17:59:22.892Z,14.46
2019-04-23T18:02:30.457Z,14.44
2019-04-23T18:04:45.251Z,14.42
2019-04-23T18:07:19.280Z,14.38
2019-04-23T18:09:45.584Z,14.39
2019-04-23T18:12:25.463Z,14.38
2019-04-23T18:14:42.208Z,14.32
2019-04-23T18:17:24.260Z,14.32
2019-04-23T18:20:12.447Z,14.35
2019-04-23T18:25:17.084Z,14.32
2019-04-23T18:27:48.319Z,14.33
2019-04-23T18:35:29.835Z,14.31
2019-04-23T18:40:54.713Z,14.26
2019-04-23T18:43:20.171Z,14.20
2019-04-23T18:45:46.781Z,14.15
2019-04-23T18:56:12.966Z,14.11
2019-04-23T18:58:52.190Z,14.07
2019-04-23T19:03:59.175Z,14.06
2019-04-23T19:09:13.976Z,13.98
2019-04-23T19:11:58.175Z,13.96
2019-04-23T19:14:32.182Z,13.90
2019-04-23T19:17:26.227Z,13.69
2019-04-23T19:19:29.658Z,13.69
2019-04-23T19:27:10.829Z,13.53
2019-04-23T19:29:39.603Z,13.51
2019-04-23T19:37:05.734Z,13.40
2019-04-23T19:39:38.447Z,13.34
2019-04-23T19:42:15.392Z,13.33
2019-04-23T19:44:43.887Z,13.32
2019-04-23T19:49:45.334Z,13.21
2019-04-23T19:52:18.757Z,13.25
2019-04-23T19:54:55.331Z,13.25
2019-04-23T19:57:19.915Z,13.25
2019-04-23T19:59:51.120Z,13.23
2019-04-23T20:02:33.861Z,13.16
2019-04-23T20:05:05.679Z,13.15
2019-04-23T20:12:42.868Z,13.00
2019-04-23T20:14:56.502Z,13.00
2019-04-23T20:18:34.038Z,13.01
2019-04-23T20:19:56.764Z,12.95
2019-04-23T20:22:42.187Z,12.91
2019-04-23T20:25:30.074Z,12.88
2019-04-23T20:27:33.723Z,12.78
2019-04-23T20:35:27.475Z,12.76
2019-04-23T20:40:45.414Z,12.62
2019-04-23T20:42:58.744Z,12.64
2019-04-23T20:45:39.628Z,12.64
2019-04-23T20:48:08.871Z,12.60
2019-04-23T20:50:39.765Z,12.60
2019-04-23T20:53:09.222Z,12.54
2019-04-23T20:58:14.153Z,12.57
2019-04-23T21:00:56.510Z,12.54
2019-04-23T21:03:37.588Z,12.52
2019-04-23T21:05:50.549Z,12.53
2019-04-23T21:08:50.794Z,12.48
2019-04-23T21:10:51.009Z,12.48
2019-04-23T21:13:43.503Z,12.49
2019-04-23T21:16:15.295Z,12.51
2019-04-23T21:20:56.221Z,12.48
2019-04-23T21:23:36.065Z,12.47
2019-04-23T21:26:00.166Z,12.47
2019-04-23T21:33:56.898Z,12.44
2019-04-23T21:36:18.827Z,12.40
2019-04-23T21:41:52.571Z,12.42
2019-04-23T21:46:47.990Z,12.41
2019-04-23T21:52:02.583Z,12.38
2019-04-23T21:54:23.156Z,12.42
2019-04-23T21:56:48.599Z,12.42
2019-04-23T21:59:10.115Z,12.42
2019-04-23T22:06:56.052Z,12.41
2019-04-23T22:09:31.617Z,12.39
2019-04-23T22:19:31.783Z,12.38
2019-04-23T22:22:22.165Z,12.44
2019-04-23T22:24:32.183Z,12.43
2019-04-23T22:27:05.872Z,12.43
2019-04-23T22:29:51.947Z,12.40
2019-04-23T22:32:08.321Z,12.41
2019-04-23T22:39:45.807Z,12.42
2019-04-23T22:42:36.327Z,12.42
2019-04-23T22:47:13.585Z,12.45
2019-04-23T22:49:53.208Z,12.47
2019-04-23T22:52:23.094Z,12.47
2019-04-23T22:57:16.990Z,12.47
2019-04-23T23:00:12.979Z,12.50
2019-04-23T23:07:50.725Z,12.57
2019-04-23T23:10:12.869Z,12.60
2019-04-23T23:12:51.359Z,12.56
2019-04-23T23:15:19.072Z,12.60
2019-04-23T23:17:50.899Z,12.57
2019-04-23T23:20:23.919Z,12.57
2019-04-23T23:23:07.354Z,12.59
2019-04-23T23:27:53.719Z,12.57
2019-04-23T23:30:19.500Z,12.59
2019-04-23T23:35:21.864Z,12.64
2019-04-23T23:37:49.937Z,12.63
2019-04-23T23:40:38.667Z,12.64
2019-04-23T23:43:08.714Z,12.60
2019-04-23T23:45:31.569Z,12.62
2019-04-23T23:47:59.391Z,12.65
2019-04-23T23:53:05.925Z,12.69
2019-04-23T23:55:33.576Z,12.67
2019-04-23T23:58:16.200Z,12.54
